sensor_id;sensor_type;location;lat;lon;timestamp;pressure;altitude;pressure_sealevel;temperature;humidity
64711;BME280;51139;45.626;6.850;2023-06-22T00:01:48;82529.34;;;21.39;27.55
64711;BME280;51139;45.626;6.850;2023-06-22T00:04:13;82525.09;;;21.34;28.02
64711;BME280;51139;45.626;6.850;2023-06-22T00:06:39;82518.88;;;21.15;28.42
64711;BME280;51139;45.626;6.850;2023-06-22T00:09:04;82532.03;;;21.23;28.27
64711;BME280;51139;45.626;6.850;2023-06-22T00:11:31;82542.72;;;21.37;28.31
64711;BME280;51139;45.626;6.850;2023-06-22T00:13:58;82520.44;;;21.20;28.16
64711;BME280;51139;45.626;6.850;2023-06-22T00:16:24;82524.63;;;21.23;28.12
64711;BME280;51139;45.626;6.850;2023-06-22T00:18:49;82517.56;;;21.46;27.43
64711;BME280;51139;45.626;6.850;2023-06-22T00:21:15;82516.63;;;21.85;26.24
64711;BME280;51139;45.626;6.850;2023-06-22T00:23:40;82525.31;;;21.84;26.67
64711;BME280;51139;45.626;6.850;2023-06-22T00:26:06;82522.06;;;21.71;27.29
64711;BME280;51139;45.626;6.850;2023-06-22T00:28:32;82527.66;;;21.46;27.75
64711;BME280;51139;45.626;6.850;2023-06-22T00:30:57;82513.47;;;21.91;26.55
64711;BME280;51139;45.626;6.850;2023-06-22T00:33:23;82504.44;;;21.54;27.50
64711;BME280;51139;45.626;6.850;2023-06-22T00:35:48;82512.50;;;21.68;27.01
64711;BME280;51139;45.626;6.850;2023-06-22T00:38:17;82515.41;;;21.89;26.69
64711;BME280;51139;45.626;6.850;2023-06-22T00:40:43;82505.03;;;21.83;27.15
64711;BME280;51139;45.626;6.850;2023-06-22T00:43:08;82521.97;;;21.39;27.85
64711;BME280;51139;45.626;6.850;2023-06-22T00:45:33;82503.56;;;21.80;27.50
64711;BME280;51139;45.626;6.850;2023-06-22T00:47:59;82507.56;;;21.79;26.86
64711;BME280;51139;45.626;6.850;2023-06-22T00:50:27;82507.31;;;21.58;27.52
64711;BME280;51139;45.626;6.850;2023-06-22T00:52:58;82506.19;;;21.48;27.93
64711;BME280;51139;45.626;6.850;2023-06-22T00:55:25;82503.81;;;21.40;28.15
64711;BME280;51139;45.626;6.850;2023-06-22T00:57:53;82502.59;;;21.43;27.60
64711;BME280;51139;45.626;6.850;2023-06-22T01:00:23;82505.72;;;21.67;27.19
64711;BME280;51139;45.626;6.850;2023-06-22T01:02:51;82497.56;;;21.51;27.61
64711;BME280;51139;45.626;6.850;2023-06-22T01:05:19;82487.19;;;21.29;27.65
64711;BME280;51139;45.626;6.850;2023-06-22T01:10:27;82482.94;;;21.70;27.16
64711;BME280;51139;45.626;6.850;2023-06-22T01:13:04;82495.16;;;21.57;27.55
64711;BME280;51139;45.626;6.850;2023-06-22T01:15:37;82493.94;;;21.45;28.13
64711;BME280;51139;45.626;6.850;2023-06-22T01:18:05;82484.91;;;21.54;27.50
64711;BME280;51139;45.626;6.850;2023-06-22T01:20:34;82489.03;;;21.41;28.01
64711;BME280;51139;45.626;6.850;2023-06-22T01:25:36;82477.94;;;21.49;27.85
64711;BME280;51139;45.626;6.850;2023-06-22T01:30:34;82471.75;;;21.46;27.86
64711;BME280;51139;45.626;6.850;2023-06-22T01:33:01;82485.88;;;21.31;27.42
64711;BME280;51139;45.626;6.850;2023-06-22T01:35:28;82477.63;;;21.72;27.33
64711;BME280;51139;45.626;6.850;2023-06-22T01:37:54;82475.38;;;21.21;28.01
64711;BME280;51139;45.626;6.850;2023-06-22T01:40:21;82475.50;;;21.55;27.84
64711;BME280;51139;45.626;6.850;2023-06-22T01:42:47;82474.13;;;20.94;28.77
64711;BME280;51139;45.626;6.850;2023-06-22T01:45:14;82482.97;;;21.40;27.82
64711;BME280;51139;45.626;6.850;2023-06-22T01:47:40;82488.84;;;21.21;28.32
64711;BME280;51139;45.626;6.850;2023-06-22T01:50:06;82489.03;;;21.25;28.19
64711;BME280;51139;45.626;6.850;2023-06-22T01:52:32;82486.03;;;21.49;27.69
64711;BME280;51139;45.626;6.850;2023-06-22T01:54:59;82474.75;;;20.92;28.90
64711;BME280;51139;45.626;6.850;2023-06-22T01:57:25;82477.06;;;20.84;28.99
64711;BME280;51139;45.626;6.850;2023-06-22T02:02:20;82493.69;;;20.94;28.63
64711;BME280;51139;45.626;6.850;2023-06-22T02:04:56;82483.84;;;20.85;28.79
64711;BME280;51139;45.626;6.850;2023-06-22T02:07:23;82490.34;;;20.66;29.12
64711;BME280;51139;45.626;6.850;2023-06-22T02:09:54;82491.00;;;20.94;28.59
64711;BME280;51139;45.626;6.850;2023-06-22T02:12:23;82476.72;;;21.06;28.42
64711;BME280;51139;45.626;6.850;2023-06-22T02:14:51;82487.97;;;21.02;28.53
64711;BME280;51139;45.626;6.850;2023-06-22T02:17:18;82485.56;;;21.08;28.27
64711;BME280;51139;45.626;6.850;2023-06-22T02:19:43;82486.84;;;20.63;28.85
64711;BME280;51139;45.626;6.850;2023-06-22T02:22:09;82484.03;;;20.75;28.91
64711;BME280;51139;45.626;6.850;2023-06-22T02:24:34;82486.25;;;20.65;28.54
64711;BME280;51139;45.626;6.850;2023-06-22T02:27:00;82486.09;;;21.05;28.38
64711;BME280;51139;45.626;6.850;2023-06-22T02:29:26;82496.59;;;20.84;28.68
64711;BME280;51139;45.626;6.850;2023-06-22T02:31:53;82507.09;;;21.08;28.04
64711;BME280;51139;45.626;6.850;2023-06-22T02:34:18;82503.88;;;21.26;28.29
64711;BME280;51139;45.626;6.850;2023-06-22T02:36:47;82504.94;;;21.05;28.36
64711;BME280;51139;45.626;6.850;2023-06-22T02:39:25;82515.44;;;20.84;28.25
64711;BME280;51139;45.626;6.850;2023-06-22T02:41:54;82517.69;;;21.04;28.07
64711;BME280;51139;45.626;6.850;2023-06-22T02:44:20;82504.94;;;21.05;27.63
64711;BME280;51139;45.626;6.850;2023-06-22T02:46:47;82469.88;;;21.19;27.63
64711;BME280;51139;45.626;6.850;2023-06-22T02:49:13;82491.16;;;20.54;28.17
64711;BME280;51139;45.626;6.850;2023-06-22T02:51:41;82455.09;;;21.50;26.95
64711;BME280;51139;45.626;6.850;2023-06-22T02:54:06;82440.00;;;21.28;26.62
64711;BME280;51139;45.626;6.850;2023-06-22T02:56:32;82447.50;;;21.46;26.84
64711;BME280;51139;45.626;6.850;2023-06-22T02:58:57;82452.44;;;21.36;26.88
64711;BME280;51139;45.626;6.850;2023-06-22T03:01:27;82469.75;;;21.01;27.36
64711;BME280;51139;45.626;6.850;2023-06-22T03:03:53;82469.94;;;21.05;27.09
64711;BME280;51139;45.626;6.850;2023-06-22T03:06:18;82482.16;;;21.38;26.87
64711;BME280;51139;45.626;6.850;2023-06-22T03:08:51;82476.56;;;21.18;27.34
64711;BME280;51139;45.626;6.850;2023-06-22T03:11:17;82471.13;;;21.02;27.87
64711;BME280;51139;45.626;6.850;2023-06-22T03:13:43;82465.38;;;21.23;26.17
64711;BME280;51139;45.626;6.850;2023-06-22T03:16:08;82469.53;;;20.52;28.37
64711;BME280;51139;45.626;6.850;2023-06-22T03:18:33;82482.38;;;20.82;27.82
64711;BME280;51139;45.626;6.850;2023-06-22T03:20:59;82471.25;;;20.90;26.76
64711;BME280;51139;45.626;6.850;2023-06-22T03:23:25;82452.97;;;21.02;26.93
64711;BME280;51139;45.626;6.850;2023-06-22T03:25:50;82471.78;;;21.16;27.02
64711;BME280;51139;45.626;6.850;2023-06-22T03:28:15;82470.56;;;21.19;27.58
64711;BME280;51139;45.626;6.850;2023-06-22T03:30:41;82459.91;;;20.91;27.60
64711;BME280;51139;45.626;6.850;2023-06-22T03:33:06;82457.81;;;20.90;28.00
64711;BME280;51139;45.626;6.850;2023-06-22T03:35:32;82457.50;;;20.97;27.57
64711;BME280;51139;45.626;6.850;2023-06-22T03:37:57;82445.13;;;21.22;26.99
64711;BME280;51139;45.626;6.850;2023-06-22T03:40:22;82454.72;;;21.41;26.78
64711;BME280;51139;45.626;6.850;2023-06-22T03:42:48;82438.84;;;21.18;27.51
64711;BME280;51139;45.626;6.850;2023-06-22T03:45:13;82450.53;;;20.34;28.58
64711;BME280;51139;45.626;6.850;2023-06-22T03:47:38;82444.47;;;20.78;28.03
64711;BME280;51139;45.626;6.850;2023-06-22T03:50:04;82440.13;;;20.56;28.44
64711;BME280;51139;45.626;6.850;2023-06-22T03:52:31;82457.50;;;20.25;29.43
64711;BME280;51139;45.626;6.850;2023-06-22T03:54:56;82476.69;;;20.48;29.15
64711;BME280;51139;45.626;6.850;2023-06-22T03:57:21;82437.78;;;20.35;29.70
64711;BME280;51139;45.626;6.850;2023-06-22T03:59:47;82450.44;;;20.18;29.79
64711;BME280;51139;45.626;6.850;2023-06-22T04:02:12;82433.00;;;20.33;29.89
64711;BME280;51139;45.626;6.850;2023-06-22T04:04:37;82458.38;;;20.30;29.74
64711;BME280;51139;45.626;6.850;2023-06-22T04:07:04;82449.59;;;20.44;29.51
64711;BME280;51139;45.626;6.850;2023-06-22T04:09:30;82449.50;;;20.41;29.19
64711;BME280;51139;45.626;6.850;2023-06-22T04:11:55;82496.50;;;20.68;28.77
64711;BME280;51139;45.626;6.850;2023-06-22T04:14:20;82461.84;;;20.47;29.81
64711;BME280;51139;45.626;6.850;2023-06-22T04:16:46;82448.22;;;20.42;29.72
64711;BME280;51139;45.626;6.850;2023-06-22T04:19:11;82460.69;;;20.08;30.94
64711;BME280;51139;45.626;6.850;2023-06-22T04:21:42;82442.16;;;20.28;30.43
64711;BME280;51139;45.626;6.850;2023-06-22T04:24:07;82439.78;;;20.20;30.37
64711;BME280;51139;45.626;6.850;2023-06-22T04:26:32;82448.47;;;19.91;31.22
64711;BME280;51139;45.626;6.850;2023-06-22T04:29:03;82456.09;;;20.38;30.49
64711;BME280;51139;45.626;6.850;2023-06-22T04:31:31;82446.56;;;20.07;30.80
64711;BME280;51139;45.626;6.850;2023-06-22T04:33:57;82445.94;;;20.09;31.18
64711;BME280;51139;45.626;6.850;2023-06-22T04:36:23;82452.53;;;20.06;31.39
64711;BME280;51139;45.626;6.850;2023-06-22T04:38:48;82467.56;;;19.97;31.37
64711;BME280;51139;45.626;6.850;2023-06-22T04:41:17;82440.69;;;19.97;31.22
64711;BME280;51139;45.626;6.850;2023-06-22T04:43:48;82455.91;;;20.20;31.20
64711;BME280;51139;45.626;6.850;2023-06-22T04:46:19;82463.09;;;20.02;31.42
64711;BME280;51139;45.626;6.850;2023-06-22T04:48:44;82479.81;;;20.14;31.10
64711;BME280;51139;45.626;6.850;2023-06-22T04:51:09;82467.47;;;20.37;30.89
64711;BME280;51139;45.626;6.850;2023-06-22T04:53:35;82466.16;;;20.24;31.28
64711;BME280;51139;45.626;6.850;2023-06-22T04:56:01;82472.75;;;20.21;31.54
64711;BME280;51139;45.626;6.850;2023-06-22T04:58:29;82471.75;;;20.00;31.40
64711;BME280;51139;45.626;6.850;2023-06-22T05:00:57;82480.72;;;20.19;31.56
64711;BME280;51139;45.626;6.850;2023-06-22T05:03:25;82472.13;;;20.36;31.15
64711;BME280;51139;45.626;6.850;2023-06-22T05:05:52;82481.50;;;20.49;30.69
64711;BME280;51139;45.626;6.850;2023-06-22T05:08:17;82484.59;;;20.16;30.84
64711;BME280;51139;45.626;6.850;2023-06-22T05:10:43;82477.81;;;20.42;31.04
64711;BME280;51139;45.626;6.850;2023-06-22T05:13:08;82488.94;;;20.65;30.66
64711;BME280;51139;45.626;6.850;2023-06-22T05:15:33;82494.56;;;20.41;30.80
64711;BME280;51139;45.626;6.850;2023-06-22T05:18:05;82487.38;;;20.46;30.80
64711;BME280;51139;45.626;6.850;2023-06-22T05:20:30;82491.63;;;20.51;30.72
64711;BME280;51139;45.626;6.850;2023-06-22T05:22:56;82503.28;;;20.83;30.22
64711;BME280;51139;45.626;6.850;2023-06-22T05:25:21;82510.22;;;21.33;29.93
64711;BME280;51139;45.626;6.850;2023-06-22T05:27:46;82508.94;;;21.04;29.20
64711;BME280;51139;45.626;6.850;2023-06-22T05:30:12;82508.94;;;20.76;30.19
64711;BME280;51139;45.626;6.850;2023-06-22T05:32:37;82507.91;;;21.11;29.92
64711;BME280;51139;45.626;6.850;2023-06-22T05:35:03;82512.91;;;21.03;29.53
64711;BME280;51139;45.626;6.850;2023-06-22T05:37:29;82512.28;;;21.18;30.09
64711;BME280;51139;45.626;6.850;2023-06-22T05:39:55;82507.91;;;21.41;29.17
64711;BME280;51139;45.626;6.850;2023-06-22T05:42:21;82520.88;;;21.45;28.99
64711;BME280;51139;45.626;6.850;2023-06-22T05:44:47;82521.38;;;21.71;28.90
64711;BME280;51139;45.626;6.850;2023-06-22T05:47:12;82521.47;;;21.73;29.09
64711;BME280;51139;45.626;6.850;2023-06-22T05:49:38;82523.16;;;22.12;29.24
64711;BME280;51139;45.626;6.850;2023-06-22T05:52:03;82522.38;;;21.94;29.87
64711;BME280;51139;45.626;6.850;2023-06-22T05:54:29;82527.50;;;21.57;31.27
64711;BME280;51139;45.626;6.850;2023-06-22T05:56:55;82531.56;;;22.05;29.28
64711;BME280;51139;45.626;6.850;2023-06-22T05:59:20;82542.44;;;21.61;31.72
64711;BME280;51139;45.626;6.850;2023-06-22T06:01:45;82550.78;;;21.81;32.12
64711;BME280;51139;45.626;6.850;2023-06-22T06:04:15;82552.16;;;21.66;31.75
64711;BME280;51139;45.626;6.850;2023-06-22T06:06:40;82560.34;;;21.68;32.66
64711;BME280;51139;45.626;6.850;2023-06-22T06:09:06;82567.97;;;20.99;33.01
64711;BME280;51139;45.626;6.850;2023-06-22T06:11:32;82567.63;;;21.07;33.56
64711;BME280;51139;45.626;6.850;2023-06-22T06:13:59;82577.69;;;21.65;33.40
64711;BME280;51139;45.626;6.850;2023-06-22T06:16:24;82583.28;;;21.69;33.04
64711;BME280;51139;45.626;6.850;2023-06-22T06:18:50;82592.34;;;21.62;34.15
64711;BME280;51139;45.626;6.850;2023-06-22T06:21:16;82592.88;;;21.58;34.63
64711;BME280;51139;45.626;6.850;2023-06-22T06:23:41;82613.69;;;21.27;36.49
64711;BME280;51139;45.626;6.850;2023-06-22T06:26:07;82625.38;;;20.76;37.96
64711;BME280;51139;45.626;6.850;2023-06-22T06:28:33;82630.75;;;20.76;37.49
64711;BME280;51139;45.626;6.850;2023-06-22T06:30:59;82632.81;;;20.36;37.96
64711;BME280;51139;45.626;6.850;2023-06-22T06:33:24;82634.44;;;20.55;37.82
64711;BME280;51139;45.626;6.850;2023-06-22T06:35:50;82633.00;;;20.80;37.30
64711;BME280;51139;45.626;6.850;2023-06-22T06:38:15;82628.25;;;20.52;39.03
64711;BME280;51139;45.626;6.850;2023-06-22T06:40:40;82638.22;;;20.64;39.11
64711;BME280;51139;45.626;6.850;2023-06-22T06:43:06;82633.28;;;20.18;38.17
64711;BME280;51139;45.626;6.850;2023-06-22T06:45:32;82628.53;;;20.45;40.89
64711;BME280;51139;45.626;6.850;2023-06-22T06:47:59;82638.41;;;20.54;39.01
64711;BME280;51139;45.626;6.850;2023-06-22T06:50:25;82626.47;;;20.03;39.82
64711;BME280;51139;45.626;6.850;2023-06-22T06:52:50;82637.34;;;20.05;39.68
64711;BME280;51139;45.626;6.850;2023-06-22T06:55:16;82632.72;;;19.94;39.58
64711;BME280;51139;45.626;6.850;2023-06-22T06:57:42;82633.72;;;20.40;39.98
64711;BME280;51139;45.626;6.850;2023-06-22T07:00:10;82643.06;;;20.39;39.14
64711;BME280;51139;45.626;6.850;2023-06-22T07:02:43;82638.72;;;20.60;40.52
64711;BME280;51139;45.626;6.850;2023-06-22T07:05:10;82641.22;;;20.70;38.15
64711;BME280;51139;45.626;6.850;2023-06-22T07:07:36;82644.28;;;20.36;39.02
64711;BME280;51139;45.626;6.850;2023-06-22T07:10:02;82633.03;;;20.40;39.25
64711;BME280;51139;45.626;6.850;2023-06-22T07:12:28;82619.25;;;20.20;39.34
64711;BME280;51139;45.626;6.850;2023-06-22T07:14:53;82613.22;;;20.47;38.97
64711;BME280;51139;45.626;6.850;2023-06-22T07:17:19;82625.69;;;20.82;38.90
64711;BME280;51139;45.626;6.850;2023-06-22T07:19:44;82625.13;;;20.30;38.78
64711;BME280;51139;45.626;6.850;2023-06-22T07:22:10;82626.75;;;20.35;39.37
64711;BME280;51139;45.626;6.850;2023-06-22T07:24:35;82616.31;;;20.55;38.71
64711;BME280;51139;45.626;6.850;2023-06-22T07:27:01;82619.47;;;20.38;38.96
64711;BME280;51139;45.626;6.850;2023-06-22T07:29:28;82616.31;;;20.55;37.67
64711;BME280;51139;45.626;6.850;2023-06-22T07:31:54;82622.88;;;21.08;37.94
64711;BME280;51139;45.626;6.850;2023-06-22T07:34:21;82620.00;;;21.04;36.92
64711;BME280;51139;45.626;6.850;2023-06-22T07:36:47;82610.44;;;21.15;37.65
64711;BME280;51139;45.626;6.850;2023-06-22T07:39:12;82612.31;;;21.12;37.00
64711;BME280;51139;45.626;6.850;2023-06-22T07:41:39;82614.03;;;21.06;37.53
64711;BME280;51139;45.626;6.850;2023-06-22T07:44:05;82605.91;;;21.20;37.47
64711;BME280;51139;45.626;6.850;2023-06-22T07:46:31;82603.00;;;21.29;36.69
64711;BME280;51139;45.626;6.850;2023-06-22T07:48:57;82610.44;;;21.59;37.97
64711;BME280;51139;45.626;6.850;2023-06-22T07:51:23;82609.72;;;21.58;36.83
64711;BME280;51139;45.626;6.850;2023-06-22T07:53:48;82606.72;;;21.08;38.71
64711;BME280;51139;45.626;6.850;2023-06-22T07:56:14;82603.00;;;21.29;37.86
64711;BME280;51139;45.626;6.850;2023-06-22T07:58:44;82597.69;;;21.02;37.81
64711;BME280;51139;45.626;6.850;2023-06-22T08:01:09;82604.16;;;20.96;38.06
64711;BME280;51139;45.626;6.850;2023-06-22T08:03:35;82598.16;;;21.12;39.48
64711;BME280;51139;45.626;6.850;2023-06-22T08:06:01;82599.41;;;20.81;41.75
64711;BME280;51139;45.626;6.850;2023-06-22T08:08:26;82586.56;;;21.23;41.00
64711;BME280;51139;45.626;6.850;2023-06-22T08:10:51;82599.53;;;21.27;39.98
64711;BME280;51139;45.626;6.850;2023-06-22T08:13:17;82608.44;;;21.02;41.56
64711;BME280;51139;45.626;6.850;2023-06-22T08:15:42;82600.69;;;21.38;41.19
64711;BME280;51139;45.626;6.850;2023-06-22T08:18:07;82607.38;;;21.37;39.66
64711;BME280;51139;45.626;6.850;2023-06-22T08:20:33;82618.72;;;21.05;40.48
64711;BME280;51139;45.626;6.850;2023-06-22T08:22:58;82610.69;;;21.35;39.97
64711;BME280;51139;45.626;6.850;2023-06-22T08:25:30;82606.16;;;21.54;39.90
64711;BME280;51139;45.626;6.850;2023-06-22T08:27:55;82610.75;;;21.51;38.63
64711;BME280;51139;45.626;6.850;2023-06-22T08:30:21;82599.03;;;21.61;39.75
64711;BME280;51139;45.626;6.850;2023-06-22T08:32:46;82591.16;;;21.65;40.73
64711;BME280;51139;45.626;6.850;2023-06-22T08:35:11;82598.44;;;21.76;40.37
64711;BME280;51139;45.626;6.850;2023-06-22T08:37:37;82592.06;;;21.55;39.77
64711;BME280;51139;45.626;6.850;2023-06-22T08:40:06;82591.75;;;21.33;39.24
64711;BME280;51139;45.626;6.850;2023-06-22T08:42:36;82595.41;;;21.40;38.71
64711;BME280;51139;45.626;6.850;2023-06-22T08:45:01;82592.06;;;21.25;39.21
64711;BME280;51139;45.626;6.850;2023-06-22T08:47:28;82597.84;;;21.20;39.88
64711;BME280;51139;45.626;6.850;2023-06-22T08:49:53;82600.84;;;21.56;39.40
64711;BME280;51139;45.626;6.850;2023-06-22T08:52:19;82598.44;;;21.62;38.16
64711;BME280;51139;45.626;6.850;2023-06-22T08:54:48;82610.34;;;21.71;38.69
64711;BME280;51139;45.626;6.850;2023-06-22T08:57:13;82610.53;;;21.61;38.56
64711;BME280;51139;45.626;6.850;2023-06-22T08:59:39;82613.88;;;21.46;38.95
64711;BME280;51139;45.626;6.850;2023-06-22T09:02:05;82610.84;;;20.81;40.12
64711;BME280;51139;45.626;6.850;2023-06-22T09:04:30;82607.13;;;20.47;41.47
64711;BME280;51139;45.626;6.850;2023-06-22T09:07:00;82604.88;;;20.01;43.53
64711;BME280;51139;45.626;6.850;2023-06-22T09:09:25;82595.22;;;19.84;44.49
64711;BME280;51139;45.626;6.850;2023-06-22T09:11:50;82608.28;;;20.30;46.67
64711;BME280;51139;45.626;6.850;2023-06-22T09:14:16;82599.81;;;20.07;49.78
64711;BME280;51139;45.626;6.850;2023-06-22T09:16:41;82584.97;;;20.06;48.81
64711;BME280;51139;45.626;6.850;2023-06-22T09:19:07;82588.22;;;18.89;49.45
64711;BME280;51139;45.626;6.850;2023-06-22T09:21:32;82603.38;;;19.08;47.28
64711;BME280;51139;45.626;6.850;2023-06-22T09:23:58;82600.13;;;19.10;47.56
64711;BME280;51139;45.626;6.850;2023-06-22T09:26:23;82590.78;;;19.37;45.84
64711;BME280;51139;45.626;6.850;2023-06-22T09:28:49;82590.03;;;19.48;48.12
64711;BME280;51139;45.626;6.850;2023-06-22T09:31:14;82577.13;;;18.95;49.43
64711;BME280;51139;45.626;6.850;2023-06-22T09:33:41;82561.56;;;18.67;51.18
64711;BME280;51139;45.626;6.850;2023-06-22T09:36:07;82558.69;;;19.13;50.11
64711;BME280;51139;45.626;6.850;2023-06-22T09:38:36;82578.69;;;18.98;46.30
64711;BME280;51139;45.626;6.850;2023-06-22T09:41:01;82583.56;;;18.90;45.28
64711;BME280;51139;45.626;6.850;2023-06-22T09:43:28;82586.81;;;19.12;43.49
64711;BME280;51139;45.626;6.850;2023-06-22T09:45:53;82600.47;;;19.04;43.72
64711;BME280;51139;45.626;6.850;2023-06-22T09:48:18;82616.88;;;18.01;45.75
64711;BME280;51139;45.626;6.850;2023-06-22T09:50:44;82605.72;;;18.17;44.18
64711;BME280;51139;45.626;6.850;2023-06-22T09:53:09;82557.53;;;18.43;46.14
64711;BME280;51139;45.626;6.850;2023-06-22T09:55:34;82572.25;;;18.18;46.21
64711;BME280;51139;45.626;6.850;2023-06-22T09:58:00;82560.56;;;18.49;48.18
64711;BME280;51139;45.626;6.850;2023-06-22T10:00:25;82565.75;;;18.71;49.88
64711;BME280;51139;45.626;6.850;2023-06-22T10:02:52;82572.75;;;19.51;45.52
64711;BME280;51139;45.626;6.850;2023-06-22T10:05:17;82575.16;;;19.59;44.95
64711;BME280;51139;45.626;6.850;2023-06-22T10:07:43;82587.13;;;19.96;46.83
64711;BME280;51139;45.626;6.850;2023-06-22T10:10:10;82595.56;;;19.90;47.65
64711;BME280;51139;45.626;6.850;2023-06-22T10:12:35;82591.22;;;19.45;46.04
64711;BME280;51139;45.626;6.850;2023-06-22T10:15:01;82598.66;;;18.71;48.98
64711;BME280;51139;45.626;6.850;2023-06-22T10:17:26;82612.88;;;19.61;47.85
64711;BME280;51139;45.626;6.850;2023-06-22T10:19:52;82624.59;;;19.80;50.76
64711;BME280;51139;45.626;6.850;2023-06-22T10:22:17;82617.13;;;19.52;50.09
64711;BME280;51139;45.626;6.850;2023-06-22T10:24:43;82612.38;;;19.39;47.94
64711;BME280;51139;45.626;6.850;2023-06-22T10:27:12;82577.50;;;18.04;56.50
64711;BME280;51139;45.626;6.850;2023-06-22T10:29:38;82558.72;;;18.40;51.87
64711;BME280;51139;45.626;6.850;2023-06-22T10:32:04;82551.97;;;18.03;52.87
64711;BME280;51139;45.626;6.850;2023-06-22T10:34:30;82552.44;;;18.11;55.04
64711;BME280;51139;45.626;6.850;2023-06-22T10:36:55;82545.69;;;18.10;55.95
64711;BME280;51139;45.626;6.850;2023-06-22T10:39:20;82560.22;;;17.83;56.50
64711;BME280;51139;45.626;6.850;2023-06-22T10:41:46;82544.50;;;17.89;56.15
64711;BME280;51139;45.626;6.850;2023-06-22T10:44:11;82536.25;;;18.21;53.54
64711;BME280;51139;45.626;6.850;2023-06-22T10:46:37;82542.34;;;18.59;53.06
64711;BME280;51139;45.626;6.850;2023-06-22T10:49:03;82535.31;;;18.28;53.15
64711;BME280;51139;45.626;6.850;2023-06-22T10:51:28;82537.63;;;18.34;54.03
64711;BME280;51139;45.626;6.850;2023-06-22T10:53:54;82533.59;;;18.96;50.12
64711;BME280;51139;45.626;6.850;2023-06-22T10:56:19;82529.22;;;18.40;49.41
64711;BME280;51139;45.626;6.850;2023-06-22T10:58:45;82549.69;;;19.08;50.09
64711;BME280;51139;45.626;6.850;2023-06-22T11:01:11;82552.28;;;19.06;52.31
64711;BME280;51139;45.626;6.850;2023-06-22T11:03:36;82544.44;;;19.10;51.25
64711;BME280;51139;45.626;6.850;2023-06-22T11:06:01;82534.66;;;19.03;52.03
64711;BME280;51139;45.626;6.850;2023-06-22T11:08:27;82520.44;;;18.63;50.79
64711;BME280;51139;45.626;6.850;2023-06-22T11:10:52;82515.75;;;19.01;47.92
64711;BME280;51139;45.626;6.850;2023-06-22T11:13:18;82517.03;;;18.62;49.34
64711;BME280;51139;45.626;6.850;2023-06-22T11:15:43;82524.44;;;18.88;48.19
64711;BME280;51139;45.626;6.850;2023-06-22T11:18:09;82533.44;;;17.95;50.71
64711;BME280;51139;45.626;6.850;2023-06-22T11:20:34;82560.53;;;17.42;53.63
64711;BME280;51139;45.626;6.850;2023-06-22T11:23:06;82568.72;;;17.68;54.77
64711;BME280;51139;45.626;6.850;2023-06-22T11:25:32;82567.22;;;17.88;54.83
64711;BME280;51139;45.626;6.850;2023-06-22T11:28:02;82560.94;;;18.81;54.49
64711;BME280;51139;45.626;6.850;2023-06-22T11:30:28;82538.41;;;18.98;53.28
64711;BME280;51139;45.626;6.850;2023-06-22T11:32:53;82526.44;;;18.75;53.09
64711;BME280;51139;45.626;6.850;2023-06-22T11:35:18;82513.94;;;18.80;49.90
64711;BME280;51139;45.626;6.850;2023-06-22T11:37:44;82506.69;;;18.57;47.99
64711;BME280;51139;45.626;6.850;2023-06-22T11:40:09;82497.91;;;18.94;47.76
64711;BME280;51139;45.626;6.850;2023-06-22T11:42:35;82503.53;;;18.98;48.52
64711;BME280;51139;45.626;6.850;2023-06-22T11:45:01;82512.13;;;18.96;46.84
64711;BME280;51139;45.626;6.850;2023-06-22T11:47:26;82517.94;;;17.82;58.39
64711;BME280;51139;45.626;6.850;2023-06-22T11:49:52;82508.31;;;18.50;55.13
64711;BME280;51139;45.626;6.850;2023-06-22T11:52:18;82504.88;;;18.23;55.35
64711;BME280;51139;45.626;6.850;2023-06-22T11:54:44;82510.56;;;18.79;52.21
64711;BME280;51139;45.626;6.850;2023-06-22T11:57:11;82510.41;;;18.89;51.14
64711;BME280;51139;45.626;6.850;2023-06-22T11:59:36;82509.41;;;19.74;48.83
64711;BME280;51139;45.626;6.850;2023-06-22T12:02:01;82502.78;;;19.89;49.52
64711;BME280;51139;45.626;6.850;2023-06-22T12:04:27;82488.72;;;19.77;54.88
64711;BME280;51139;45.626;6.850;2023-06-22T12:06:52;82485.13;;;19.58;54.70
64711;BME280;51139;45.626;6.850;2023-06-22T12:09:18;82480.00;;;19.10;55.64
64711;BME280;51139;45.626;6.850;2023-06-22T12:11:43;82470.72;;;19.39;55.37
64711;BME280;51139;45.626;6.850;2023-06-22T12:14:08;82471.31;;;19.78;54.31
64711;BME280;51139;45.626;6.850;2023-06-22T12:16:34;82483.09;;;19.45;50.67
64711;BME280;51139;45.626;6.850;2023-06-22T12:18:59;82479.06;;;19.72;50.63
64711;BME280;51139;45.626;6.850;2023-06-22T12:21:24;82490.25;;;20.08;49.86
64711;BME280;51139;45.626;6.850;2023-06-22T12:23:50;82499.44;;;20.17;48.89
64711;BME280;51139;45.626;6.850;2023-06-22T12:26:15;82505.13;;;19.55;56.31
64711;BME280;51139;45.626;6.850;2023-06-22T12:28:41;82513.69;;;19.39;59.04
64711;BME280;51139;45.626;6.850;2023-06-22T12:31:06;82514.75;;;19.20;63.46
64711;BME280;51139;45.626;6.850;2023-06-22T12:33:32;82529.09;;;18.87;65.70
64711;BME280;51139;45.626;6.850;2023-06-22T12:35:57;82517.00;;;18.36;69.88
64711;BME280;51139;45.626;6.850;2023-06-22T12:38:22;82503.03;;;17.90;70.89
64711;BME280;51139;45.626;6.850;2023-06-22T12:40:50;82499.41;;;18.09;75.10
64711;BME280;51139;45.626;6.850;2023-06-22T12:43:16;82505.25;;;17.70;71.52
64711;BME280;51139;45.626;6.850;2023-06-22T12:45:41;82517.59;;;18.23;72.29
64711;BME280;51139;45.626;6.850;2023-06-22T12:48:06;82519.69;;;18.74;69.15
64711;BME280;51139;45.626;6.850;2023-06-22T12:50:33;82535.66;;;18.22;73.94
64711;BME280;51139;45.626;6.850;2023-06-22T12:52:58;82538.69;;;18.17;67.91
64711;BME280;51139;45.626;6.850;2023-06-22T12:55:25;82543.25;;;16.87;80.66
64711;BME280;51139;45.626;6.850;2023-06-22T12:57:50;82557.09;;;17.17;82.94
64711;BME280;51139;45.626;6.850;2023-06-22T13:00:16;82570.94;;;15.73;88.86
64711;BME280;51139;45.626;6.850;2023-06-22T13:02:41;82549.06;;;15.24;95.85
64711;BME280;51139;45.626;6.850;2023-06-22T13:05:07;82506.91;;;14.91;94.25